Time;durP1;ratioP1;P1;durP2;ratioP2;P2;SDS_P1;SDS_P2;PMS_P1;PMS_P2;Temp;Humidity;BMP_temperature;BMP_pressure;BME280_temperature;BME280_humidity;BME280_pressure;Samples;Min_cycle;Max_cycle;Signal;HPM_P1;HPM_P2
2022/08/17 00:00:54;;;;;;;14.50;12.90;;;;;;;20.34;80.65;99906.38;90110;1270;88746;-59
2022/08/17 00:03:10;;;;;;;14.30;12.90;;;;;;;20.26;80.79;99903.55;90098;1270;93181;-59
2022/08/17 00:05:20;;;;;;;16.10;12.50;;;;;;;20.22;80.73;99905.70;90096;1271;81370;-59
2022/08/17 00:07:30;;;;;;;13.20;11.90;;;;;;;20.19;80.78;99905.20;90103;1271;81818;-59
2022/08/17 00:09:38;;;;;;;13.00;11.80;;;;;;;20.17;80.85;99902.05;90102;1271;98471;-59
2022/08/17 00:11:49;;;;;;;14.80;12.00;;;;;;;20.15;80.84;99902.53;90133;1270;88914;-59
2022/08/17 00:14:01;;;;;;;12.70;11.50;;;;;;;20.15;80.87;99898.95;90056;1270;94948;-59
2022/08/17 00:16:15;;;;;;;14.20;12.60;;;;;;;20.14;80.86;99904.73;90099;1271;81032;-59
2022/08/17 00:18:24;;;;;;;15.70;11.80;;;;;;;20.11;80.86;99905.58;90111;1271;81569;-59
2022/08/17 00:20:33;;;;;;;13.20;12.00;;;;;;;20.08;80.89;99903.14;90025;1272;97647;-59
2022/08/17 00:22:41;;;;;;;13.30;12.00;;;;;;;20.07;80.98;99903.35;90122;1270;87428;-60
2022/08/17 00:24:50;;;;;;;14.40;12.20;;;;;;;20.06;81.00;99906.30;90096;1272;94982;-60
2022/08/17 00:26:59;;;;;;;13.60;12.30;;;;;;;20.06;80.90;99909.10;90078;1270;81817;-59
2022/08/17 00:29:08;;;;;;;14.20;12.80;;;;;;;20.05;81.18;99909.31;90090;1271;82039;-59
2022/08/17 00:31:17;;;;;;;14.20;12.70;;;;;;;19.96;81.47;99908.15;90128;1270;97395;-60
2022/08/17 00:33:32;;;;;;;13.60;12.10;;;;;;;19.93;81.24;99907.69;90121;1272;88413;-60
2022/08/17 00:35:42;;;;;;;12.70;11.60;;;;;;;19.87;81.39;99906.27;90114;1271;93927;-60
2022/08/17 00:37:51;;;;;;;14.20;12.70;;;;;;;19.85;81.40;99905.16;90108;1272;81530;-60
2022/08/17 00:40:00;;;;;;;14.20;13.00;;;;;;;19.86;81.36;99903.63;90133;1271;81447;-60
2022/08/17 00:42:19;;;;;;;13.40;12.10;;;;;;;19.89;81.47;99908.58;90130;1270;98445;-60
2022/08/17 00:44:28;;;;;;;14.20;12.40;;;;;;;19.90;81.51;99910.78;90123;1270;86731;-59
2022/08/17 00:46:40;;;;;;;13.00;11.80;;;;;;;19.90;81.48;99912.11;90093;1270;94664;-60
2022/08/17 00:48:50;;;;;;;13.50;12.10;;;;;;;19.89;81.47;99909.19;90086;1272;81231;-60
2022/08/17 00:51:07;;;;;;;14.10;12.70;;;;;;;19.88;81.49;99909.30;90145;1270;81999;-60
2022/08/17 00:53:16;;;;;;;14.70;12.20;;;;;;;19.85;81.59;99911.45;90095;1270;99198;-60
2022/08/17 00:55:27;;;;;;;13.30;12.00;;;;;;;19.84;81.47;99910.90;90118;1271;87321;-60
2022/08/17 00:57:39;;;;;;;16.70;13.40;;;;;;;19.85;81.49;99905.48;90089;1270;94353;-60
2022/08/17 00:59:52;;;;;;;13.80;12.00;;;;;;;19.86;81.49;99908.89;90103;1270;81961;-60
2022/08/17 01:02:02;;;;;;;13.90;12.40;;;;;;;19.85;81.72;99910.10;90107;1271;82721;-60
2022/08/17 01:04:12;;;;;;;13.20;11.80;;;;;;;19.85;81.75;99908.73;90118;1270;99654;-60
2022/08/17 01:06:22;;;;;;;15.00;13.50;;;;;;;19.82;81.66;99903.54;90144;1270;88025;-60
2022/08/17 01:08:33;;;;;;;14.80;13.10;;;;;;;19.83;81.77;99903.88;90096;1270;94269;-60
2022/08/17 01:10:46;;;;;;;15.50;12.60;;;;;;;19.80;81.93;99906.81;90118;1270;82170;-60
2022/08/17 01:12:56;;;;;;;14.20;12.80;;;;;;;19.75;81.95;99904.09;90113;1271;81856;-60
2022/08/17 01:15:05;;;;;;;15.10;13.20;;;;;;;19.74;81.88;99906.55;90117;1270;98434;-60
2022/08/17 01:17:14;;;;;;;14.60;13.00;;;;;;;19.65;81.83;99907.77;90109;1270;87300;-60
2022/08/17 01:19:27;;;;;;;16.10;14.10;;;;;;;19.62;81.92;99910.15;90106;1270;94165;-60
2022/08/17 01:21:42;;;;;;;15.50;14.00;;;;;;;19.60;82.06;99912.92;90095;1272;82385;-60
2022/08/17 01:23:51;;;;;;;14.40;13.00;;;;;;;19.57;82.18;99906.72;90136;1270;82617;-59
2022/08/17 01:26:05;;;;;;;14.60;13.20;;;;;;;19.57;82.17;99908.20;90139;1270;97496;-60
2022/08/17 01:28:13;;;;;;;14.70;12.30;;;;;;;19.56;82.16;99909.27;90114;1270;87542;-60
2022/08/17 01:30:23;;;;;;;15.40;13.40;;;;;;;19.56;82.23;99911.98;90110;1270;94138;-60
2022/08/17 01:32:33;;;;;;;14.50;13.00;;;;;;;19.54;82.30;99914.52;90110;1270;80555;-60
2022/08/17 01:34:42;;;;;;;14.10;12.80;;;;;;;19.54;82.26;99917.70;90139;1270;83212;-60
2022/08/17 01:36:52;;;;;;;13.70;12.30;;;;;;;19.55;82.57;99916.08;90117;1271;98047;-59
2022/08/17 01:39:01;;;;;;;16.60;14.10;;;;;;;19.57;82.52;99916.96;90133;1270;87569;-59
2022/08/17 01:41:13;;;;;;;16.10;14.40;;;;;;;19.61;82.55;99919.20;90093;1271;94620;-59
2022/08/17 01:43:26;;;;;;;16.80;13.80;;;;;;;19.65;82.68;99918.30;90093;1270;80755;-59
2022/08/17 01:45:43;;;;;;;14.60;13.30;;;;;;;19.70;82.72;99921.47;90167;1270;81465;-59
2022/08/17 01:47:52;;;;;;;15.20;13.60;;;;;;;19.73;82.80;99921.95;90129;1270;98149;-59
2022/08/17 01:50:07;;;;;;;17.20;14.90;;;;;;;19.77;82.76;99924.27;90108;1271;87720;-59
2022/08/17 01:52:16;;;;;;;15.80;14.20;;;;;;;19.81;82.81;99919.05;90104;1270;92847;-59
2022/08/17 01:54:26;;;;;;;14.50;12.80;;;;;;;19.85;82.72;99920.02;90094;1270;80802;-59
2022/08/17 01:56:38;;;;;;;14.80;13.30;;;;;;;19.86;82.57;99916.69;90114;1270;81472;-60
2022/08/17 01:58:47;;;;;;;17.90;14.00;;;;;;;19.86;82.57;99917.66;90107;1271;99754;-60
2022/08/17 02:00:56;;;;;;;15.90;14.20;;;;;;;19.83;82.68;99915.55;90096;1271;87758;-60
2022/08/17 02:03:07;;;;;;;16.50;14.20;;;;;;;19.77;82.60;99915.02;90087;1271;94296;-60
2022/08/17 02:05:17;;;;;;;16.20;14.50;;;;;;;19.67;82.84;99915.96;90106;1270;82256;-60
2022/08/17 02:07:25;;;;;;;16.30;14.60;;;;;;;19.64;82.70;99917.58;90119;1270;79943;-60
2022/08/17 02:09:34;;;;;;;15.80;14.20;;;;;;;19.63;82.71;99915.55;90120;1271;99553;-60
2022/08/17 02:11:44;;;;;;;16.30;13.80;;;;;;;19.63;82.65;99921.13;90111;1270;89121;-60
2022/08/17 02:13:53;;;;;;;16.30;14.20;;;;;;;19.62;82.55;99920.14;90117;1272;94414;-60
2022/08/17 02:16:02;;;;;;;16.20;14.50;;;;;;;19.60;82.77;99921.31;90078;1271;80965;-60
2022/08/17 02:18:12;;;;;;;19.10;16.00;;;;;;;19.60;82.68;99926.58;90122;1272;79870;-60
2022/08/17 02:20:22;;;;;;;16.70;15.00;;;;;;;19.60;82.74;99928.98;90103;1270;99196;-60
2022/08/17 02:22:31;;;;;;;15.80;14.10;;;;;;;19.57;82.70;99933.25;90121;1272;88029;-60
2022/08/17 02:24:41;;;;;;;15.10;13.70;;;;;;;19.55;82.77;99931.75;90093;1270;94578;-60
2022/08/17 02:26:50;;;;;;;15.60;13.70;;;;;;;19.56;82.63;99931.80;90098;1270;80519;-60
2022/08/17 02:28:58;;;;;;;15.90;14.30;;;;;;;19.52;82.74;99933.19;90106;1270;81380;-60
2022/08/17 02:31:11;;;;;;;17.80;14.50;;;;;;;19.44;82.96;99931.46;90119;1271;99372;-60
2022/08/17 02:33:20;;;;;;;16.40;14.70;;;;;;;19.41;82.94;99927.93;90108;1272;87680;-60
2022/08/17 02:35:28;;;;;;;15.20;13.70;;;;;;;19.38;82.90;99927.89;90075;1270;92630;-60
2022/08/17 02:37:38;;;;;;;17.00;14.90;;;;;;;19.34;82.83;99927.72;90094;1270;80179;-60
2022/08/17 02:39:46;;;;;;;15.70;14.10;;;;;;;19.33;82.91;99923.92;90115;1271;82420;-60
2022/08/17 02:42:03;;;;;;;15.20;13.60;;;;;;;19.33;82.94;99921.52;90111;1271;98817;-60
2022/08/17 02:44:12;;;;;;;15.70;14.30;;;;;;;19.30;82.97;99924.33;90113;1270;87383;-60
2022/08/17 02:46:21;;;;;;;15.70;14.20;;;;;;;19.27;83.04;99927.36;90095;1270;94306;-60
2022/08/17 02:48:29;;;;;;;15.60;14.00;;;;;;;19.25;82.91;99928.48;90047;1272;80176;-60
2022/08/17 02:50:38;;;;;;;16.20;13.80;;;;;;;19.23;82.98;99930.21;90118;1271;82422;-60
2022/08/17 02:52:49;;;;;;;16.60;14.60;;;;;;;19.22;83.08;99932.52;90108;1272;98464;-60
2022/08/17 02:54:57;;;;;;;16.60;14.70;;;;;;;19.22;83.09;99933.55;90126;1272;86168;-60
2022/08/17 02:57:06;;;;;;;16.90;14.30;;;;;;;19.22;83.20;99932.62;90113;1270;94529;-60
2022/08/17 02:59:15;;;;;;;16.30;14.70;;;;;;;19.19;83.22;99932.54;90081;1272;80930;-60
2022/08/17 03:01:23;;;;;;;18.90;17.00;;;;;;;19.18;83.13;99934.11;90099;1271;81582;-60
2022/08/17 03:03:32;;;;;;;18.60;16.80;;;;;;;19.17;83.05;99934.48;90104;1271;98667;-59
2022/08/17 03:05:41;;;;;;;18.40;16.50;;;;;;;19.15;83.05;99937.30;90085;1271;88222;-59
2022/08/17 03:07:50;;;;;;;17.90;16.00;;;;;;;19.13;82.97;99937.60;90106;1272;95211;-59
2022/08/17 03:09:59;;;;;;;18.30;16.50;;;;;;;19.12;83.02;99938.70;90089;1272;80948;-59
2022/08/17 03:12:16;;;;;;;21.60;16.60;;;;;;;19.09;83.15;99933.25;90116;1271;83052;-60
2022/08/17 03:14:25;;;;;;;16.90;15.30;;;;;;;19.09;83.20;99934.66;90094;1272;98178;-60
2022/08/17 03:16:34;;;;;;;16.30;14.60;;;;;;;19.09;83.17;99937.95;90122;1270;86439;-60
2022/08/17 03:18:42;;;;;;;17.60;14.00;;;;;;;19.08;83.15;99938.38;90078;1272;94156;-60
2022/08/17 03:20:51;;;;;;;16.70;14.90;;;;;;;19.05;83.19;99941.78;90080;1271;80991;-60
2022/08/17 03:23:00;;;;;;;16.40;13.80;;;;;;;19.02;83.18;99941.77;90121;1271;82575;-59
2022/08/17 03:25:12;;;;;;;16.10;14.60;;;;;;;19.02;83.20;99938.69;90115;1272;99769;-59
2022/08/17 03:27:20;;;;;;;15.50;13.70;;;;;;;19.00;83.10;99942.00;90115;1271;86918;-59
2022/08/17 03:29:29;;;;;;;14.90;13.40;;;;;;;18.96;83.20;99948.42;90097;1271;94058;-59
2022/08/17 03:31:38;;;;;;;18.90;15.00;;;;;;;18.97;83.23;99944.70;90070;1272;81951;-59
2022/08/17 03:33:47;;;;;;;17.30;15.60;;;;;;;19.03;83.41;99947.80;90110;1272;80751;-59
2022/08/17 03:35:56;;;;;;;15.20;13.70;;;;;;;19.08;83.42;99944.73;90114;1272;98552;-59
2022/08/17 03:38:05;;;;;;;16.20;14.50;;;;;;;19.09;83.59;99950.43;90117;1272;89000;-59
2022/08/17 03:40:14;;;;;;;16.80;15.20;;;;;;;19.12;83.66;99955.83;90108;1271;91699;-59
2022/08/17 03:42:25;;;;;;;16.40;14.80;;;;;;;19.12;83.67;99961.64;90100;1272;81355;-60
2022/08/17 03:44:34;;;;;;;16.00;14.20;;;;;;;19.13;83.71;99962.37;90105;1272;82782;-59
2022/08/17 03:56:43;;;;;;;15.90;14.20;;;;;;;19.37;83.90;99962.92;90136;1272;82284;-60
2022/08/17 03:58:53;;;;;;;17.90;15.00;;;;;;;19.44;83.88;99965.44;90112;1271;98420;-59
2022/08/17 04:01:02;;;;;;;20.10;14.60;;;;;;;19.53;84.00;99974.03;90107;1272;87218;-60
2022/08/17 04:03:12;;;;;;;15.60;13.70;;;;;;;19.64;84.07;99971.23;90088;1272;94025;-60
2022/08/17 04:05:21;;;;;;;16.00;14.40;;;;;;;19.75;84.04;99980.34;90085;1272;81376;-60
2022/08/17 04:07:32;;;;;;;14.90;13.00;;;;;;;19.91;83.97;99979.27;90114;1271;82237;-60
2022/08/17 04:09:41;;;;;;;14.70;13.20;;;;;;;19.98;83.94;99981.16;90098;1272;98624;-60
2022/08/17 04:11:50;;;;;;;16.00;13.50;;;;;;;20.04;83.98;99974.68;90109;1272;87688;-60
2022/08/17 04:14:00;;;;;;;15.60;14.10;;;;;;;20.05;84.09;99973.92;90139;1272;94965;-60
2022/08/17 04:16:09;;;;;;;20.10;14.20;;;;;;;20.12;84.03;99971.13;90087;1272;82097;-60
2022/08/17 04:18:18;;;;;;;16.90;13.90;;;;;;;20.19;83.94;99974.92;90121;1271;80060;-60
2022/08/17 04:20:28;;;;;;;14.70;13.10;;;;;;;20.26;83.97;99981.14;90131;1271;99655;-59
2022/08/17 04:22:36;;;;;;;15.10;13.50;;;;;;;20.37;84.08;99982.75;90115;1272;88906;-60
2022/08/17 04:24:45;;;;;;;15.70;14.20;;;;;;;20.45;83.95;99981.18;90101;1271;94125;-61
2022/08/17 04:26:54;;;;;;;17.50;14.80;;;;;;;20.53;84.23;99980.52;90095;1272;81193;-60
2022/08/17 04:29:03;;;;;;;14.40;12.90;;;;;;;20.69;84.47;99979.23;90108;1272;81995;-60
2022/08/17 04:31:13;;;;;;;15.40;13.50;;;;;;;20.87;84.35;99976.93;90111;1271;98933;-60
2022/08/17 04:33:24;;;;;;;15.00;12.90;;;;;;;21.09;84.30;99974.27;90109;1272;85912;-60
2022/08/17 04:35:36;;;;;;;16.10;13.60;;;;;;;21.24;83.98;99973.12;90084;1272;93273;-60
2022/08/17 04:37:46;;;;;;;14.30;12.50;;;;;;;21.41;83.97;99975.75;90086;1272;81069;-59
2022/08/17 04:42:17;;;;;;;15.80;12.10;;;;;;;22.13;83.40;99970.34;90098;1270;98818;-60
2022/08/17 04:44:26;;;;;;;14.10;12.60;;;;;;;22.88;83.22;99969.52;90117;1271;87593;-60
2022/08/17 04:46:36;;;;;;;13.80;12.40;;;;;;;23.78;82.50;99968.55;90116;1271;93650;-59
2022/08/17 04:48:48;;;;;;;14.60;12.80;;;;;;;24.60;81.55;99960.37;90113;1272;79370;-59
2022/08/17 04:50:58;;;;;;;13.70;12.30;;;;;;;25.36;80.67;99962.23;90122;1271;82238;-59
2022/08/17 04:53:07;;;;;;;14.10;12.70;;;;;;;26.01;79.41;99965.09;90135;1271;98686;-59
2022/08/17 04:55:16;;;;;;;14.30;12.80;;;;;;;26.67;77.85;99964.24;90129;1271;88418;-59
2022/08/17 04:57:25;;;;;;;13.80;12.20;;;;;;;27.20;76.66;99967.91;90097;1272;93421;-61
2022/08/17 04:59:33;;;;;;;19.00;12.70;;;;;;;27.49;74.94;99967.88;90098;1271;80631;-60
2022/08/17 05:01:45;;;;;;;13.20;11.30;;;;;;;27.83;75.04;99968.25;90122;1272;82116;-60
2022/08/17 05:03:57;;;;;;;15.70;11.50;;;;;;;28.35;74.47;99961.75;90133;1271;98736;-60
2022/08/17 05:06:07;;;;;;;16.70;11.70;;;;;;;28.85;73.15;99965.45;90106;1271;86607;-61
2022/08/17 05:08:18;;;;;;;12.70;11.60;;;;;;;29.23;71.70;99968.27;90081;1271;94413;-61
2022/08/17 05:10:31;;;;;;;11.80;10.70;;;;;;;29.25;70.07;99966.87;90092;1272;79838;-61
2022/08/17 05:12:40;;;;;;;12.00;10.80;;;;;;;28.95;69.39;99965.06;90124;1271;81322;-60
2022/08/17 05:14:48;;;;;;;12.00;10.90;;;;;;;28.59;68.37;99965.05;90106;1272;99984;-60
2022/08/17 05:16:57;;;;;;;13.70;10.80;;;;;;;28.09;68.42;99966.98;90127;1271;88576;-60
2022/08/17 05:19:06;;;;;;;11.40;10.30;;;;;;;27.66;68.76;99968.80;90094;1272;94997;-59
2022/08/17 05:21:16;;;;;;;14.80;10.20;;;;;;;27.25;68.94;99973.30;90093;1271;80482;-60
2022/08/17 05:23:28;;;;;;;13.00;10.60;;;;;;;27.25;68.81;99974.41;90135;1271;82522;-60
2022/08/17 05:25:41;;;;;;;11.20;9.90;;;;;;;27.62;68.70;99979.00;90136;1271;98939;-60
2022/08/17 05:27:51;;;;;;;11.90;10.10;;;;;;;28.19;67.47;99975.40;90136;1272;87794;-60
2022/08/17 05:30:00;;;;;;;11.80;9.60;;;;;;;28.75;66.45;99977.56;90112;1271;93935;-60
2022/08/17 05:32:14;;;;;;;10.30;9.00;;;;;;;29.30;65.93;99975.18;90125;1271;80123;-60
2022/08/17 05:34:23;;;;;;;11.00;9.70;;;;;;;29.71;65.18;99975.86;90131;1272;82124;-60
2022/08/17 05:36:31;;;;;;;10.50;9.60;;;;;;;30.24;64.69;99977.19;90146;1272;97132;-60
2022/08/17 05:38:40;;;;;;;13.60;9.30;;;;;;;30.77;64.00;99976.23;90116;1273;88217;-59
2022/08/17 05:40:49;;;;;;;13.40;9.00;;;;;;;31.36;62.92;99975.91;90109;1272;95092;-60
2022/08/17 05:43:10;;;;;;;10.30;8.80;;;;;;;31.99;61.61;99981.86;90100;1272;80632;-60
2022/08/17 05:45:21;;;;;;;10.80;8.30;;;;;;;32.57;60.59;99979.00;90166;1271;81662;-60
2022/08/17 05:47:31;;;;;;;12.40;8.20;;;;;;;32.91;59.71;99983.57;90153;1271;98220;-59
2022/08/17 05:49:40;;;;;;;9.70;8.00;;;;;;;33.02;58.60;99984.21;90135;1271;88005;-59
2022/08/17 05:52:19;;;;;;;12.80;9.20;;;;;;;33.35;57.89;99978.45;90101;1270;94555;-60
2022/08/17 05:54:40;;;;;;;9.80;8.30;;;;;;;33.35;57.15;99982.41;90121;1272;79757;-60
2022/08/17 05:57:16;;;;;;;11.20;9.90;;;;;;;33.82;56.69;99986.45;90141;1271;81993;-59
2022/08/17 05:59:35;;;;;;;10.70;9.30;;;;;;;34.08;55.43;99989.23;90125;1272;99711;-59
2022/08/17 06:01:53;;;;;;;12.00;9.80;;;;;;;34.50;54.83;99984.10;90140;1272;87577;-60
2022/08/17 06:04:14;;;;;;;11.70;9.60;;;;;;;34.64;53.83;99986.14;90109;1270;94051;-59
2022/08/17 06:06:40;;;;;;;10.10;9.00;;;;;;;34.20;53.58;99988.08;90110;1271;79332;-60
2022/08/17 06:08:57;;;;;;;10.80;9.50;;;;;;;34.12;53.46;99985.38;90132;1272;82467;-60
2022/08/17 06:11:21;;;;;;;13.00;9.80;;;;;;;33.68;52.64;99981.80;90115;1271;99742;-60
2022/08/17 06:13:49;;;;;;;10.80;9.20;;;;;;;32.51;53.04;99985.98;90121;1272;87138;-60
2022/08/17 06:16:05;;;;;;;8.90;8.10;;;;;;;31.61;53.49;99987.56;90094;1272;94303;-59
2022/08/17 06:18:14;;;;;;;10.20;8.60;;;;;;;30.89;54.04;99990.30;90098;1272;79821;-59
2022/08/17 06:20:25;;;;;;;11.00;8.90;;;;;;;30.31;55.03;99999.00;90111;1271;81361;-60
2022/08/17 06:22:41;;;;;;;14.70;9.00;;;;;;;30.07;55.17;100000.88;90137;1270;98351;-60
2022/08/17 06:24:57;;;;;;;10.50;8.60;;;;;;;29.77;55.39;100003.73;90113;1271;88884;-60
2022/08/17 06:27:18;;;;;;;9.30;8.30;;;;;;;29.44;55.36;100003.21;90114;1272;93953;-60
2022/08/17 06:29:38;;;;;;;11.20;8.60;;;;;;;29.01;55.94;100005.14;90100;1270;80887;-60
2022/08/17 06:31:47;;;;;;;9.70;7.70;;;;;;;28.88;56.71;100007.34;90143;1272;82189;-60
2022/08/17 06:33:57;;;;;;;11.80;7.90;;;;;;;28.92;57.20;100009.98;90106;1272;98705;-60
2022/08/17 06:36:18;;;;;;;10.80;7.70;;;;;;;28.71;57.45;100007.88;90124;1270;87404;-60
2022/08/17 06:38:37;;;;;;;9.50;8.30;;;;;;;28.52;57.54;100010.67;90101;1272;94227;-60
2022/08/17 06:40:59;;;;;;;10.10;7.90;;;;;;;28.50;57.93;100011.34;90072;1271;80023;-60
2022/08/17 06:43:24;;;;;;;9.00;7.90;;;;;;;28.79;57.87;100009.32;90135;1271;82274;-60
2022/08/17 06:45:47;;;;;;;9.50;7.90;;;;;;;29.23;57.79;100006.20;90135;1272;98435;-60
2022/08/17 06:48:04;;;;;;;10.80;7.80;;;;;;;30.30;57.33;100004.41;90122;1270;88969;-60
2022/08/17 06:50:22;;;;;;;10.90;8.10;;;;;;;31.23;56.62;99999.32;90105;1272;95499;-60
2022/08/17 06:52:34;;;;;;;14.50;12.60;;;;;;;31.08;55.45;99998.36;90086;1272;80171;-60
2022/08/17 06:54:56;;;;;;;9.90;8.90;;;;;;;31.39;55.82;99993.92;90110;1272;82042;-60
2022/08/17 06:57:16;;;;;;;9.20;7.60;;;;;;;31.44;54.74;99996.04;90130;1272;98713;-60
2022/08/17 06:59:32;;;;;;;8.80;8.00;;;;;;;31.09;54.71;99995.21;90107;1272;88929;-59
2022/08/17 07:01:42;;;;;;;10.10;8.00;;;;;;;31.90;54.14;100001.16;90065;1270;93629;-60
2022/08/17 07:03:57;;;;;;;8.70;7.60;;;;;;;32.36;53.86;100002.04;90088;1271;79835;-60
2022/08/17 07:06:11;;;;;;;8.80;7.90;;;;;;;32.65;53.44;99999.07;90117;1272;83105;-60
2022/08/17 07:08:32;;;;;;;8.30;7.60;;;;;;;33.00;52.77;100006.12;90092;1272;99528;-59
2022/08/17 07:10:49;;;;;;;9.90;7.70;;;;;;;33.12;51.69;100007.36;90140;1272;87886;-60
2022/08/17 07:13:03;;;;;;;9.50;7.90;;;;;;;33.67;51.15;100006.57;90095;1271;94695;-60
2022/08/17 07:15:20;;;;;;;10.90;8.30;;;;;;;34.06;50.76;100010.81;90100;1272;79198;-60
2022/08/17 07:17:29;;;;;;;10.80;7.80;;;;;;;34.64;50.16;100011.16;90108;1272;80510;-60
2022/08/17 07:19:44;;;;;;;9.20;8.00;;;;;;;35.13;49.79;100009.58;90095;1270;99398;-60
2022/08/17 07:22:03;;;;;;;13.40;8.10;;;;;;;35.52;49.09;100010.89;90128;1271;89384;-60
2022/08/17 07:24:28;;;;;;;8.80;7.40;;;;;;;36.01;47.77;100009.91;90074;1272;94693;-59
2022/08/17 07:26:38;;;;;;;10.70;7.90;;;;;;;36.34;47.00;100009.46;90074;1272;79856;-60
2022/08/17 07:28:48;;;;;;;9.40;7.20;;;;;;;36.71;46.36;100009.91;90119;1270;83046;-60
2022/08/17 07:30:57;;;;;;;11.20;7.50;;;;;;;37.34;45.60;100007.27;90140;1271;98169;-60
2022/08/17 07:33:11;;;;;;;10.80;7.30;;;;;;;37.58;44.61;100012.84;90119;1271;86722;-60
2022/08/17 07:35:33;;;;;;;11.40;7.40;;;;;;;37.71;42.91;100017.23;90109;1272;95539;-60
2022/08/17 07:37:44;;;;;;;12.40;7.10;;;;;;;38.12;42.40;100013.80;90080;1272;80879;-61
2022/08/17 07:39:54;;;;;;;7.00;6.30;;;;;;;38.25;42.31;100012.36;90101;1272;82176;-61
2022/08/17 07:42:10;;;;;;;8.50;6.50;;;;;;;38.52;41.79;100008.04;90124;1272;98552;-61
2022/08/17 07:44:20;;;;;;;9.10;6.60;;;;;;;38.38;41.08;100006.65;90095;1272;88398;-61
2022/08/17 07:49:18;;;;;;;7.20;6.50;;;;;;;38.43;41.21;100005.83;90082;1272;78071;-59
2022/08/17 07:51:32;;;;;;;10.70;7.60;;;;;;;37.81;40.71;100005.69;90139;1271;82436;-58
2022/08/17 07:53:41;;;;;;;10.60;6.10;;;;;;;37.25;41.04;100010.99;90105;1272;99701;-59
2022/08/17 07:55:51;;;;;;;8.10;6.50;;;;;;;37.44;40.99;100010.13;90134;1272;88955;-59
2022/08/17 07:58:02;;;;;;;9.20;6.30;;;;;;;37.59;40.90;100012.13;90086;1272;94879;-59
2022/08/17 08:00:23;;;;;;;7.60;6.80;;;;;;;37.76;40.70;100007.39;90116;1272;79954;-60
2022/08/17 08:02:37;;;;;;;9.00;6.30;;;;;;;37.73;40.63;100002.44;90097;1272;82442;-60
2022/08/17 08:04:49;;;;;;;8.90;6.20;;;;;;;37.94;40.72;100001.63;90118;1272;98820;-61
2022/08/17 08:07:00;;;;;;;7.90;6.60;;;;;;;37.85;40.37;99996.42;90114;1271;88923;-60
2022/08/17 08:09:27;;;;;;;7.60;6.70;;;;;;;38.19;39.93;100002.70;90080;1271;94236;-60
2022/08/17 08:11:38;;;;;;;8.80;6.30;;;;;;;38.57;39.85;100003.66;90081;1272;79419;-60
2022/08/17 08:13:48;;;;;;;8.70;6.20;;;;;;;38.79;39.28;100001.16;90117;1272;81217;-61
2022/08/17 08:16:13;;;;;;;9.60;6.40;;;;;;;38.71;39.01;100001.06;90106;1272;99387;-59
2022/08/17 08:18:30;;;;;;;10.20;6.70;;;;;;;38.60;38.71;99999.73;90101;1272;87745;-60
2022/08/17 08:20:49;;;;;;;12.40;7.00;;;;;;;38.53;38.75;99995.95;90099;1271;94268;-60
2022/08/17 08:23:10;;;;;;;9.60;6.90;;;;;;;38.86;37.93;100001.33;90080;1272;79876;-59
2022/08/17 08:25:31;;;;;;;10.10;6.90;;;;;;;38.90;38.32;100002.09;90133;1272;81845;-59
2022/08/17 08:27:50;;;;;;;10.70;6.80;;;;;;;39.09;37.91;100005.73;90096;1271;98196;-60
2022/08/17 08:30:07;;;;;;;12.00;6.70;;;;;;;39.22;37.70;100008.20;90101;1272;87078;-60
2022/08/17 08:32:27;;;;;;;9.60;6.70;;;;;;;39.33;37.51;100007.74;90091;1272;94306;-59
2022/08/17 08:34:46;;;;;;;9.50;6.50;;;;;;;39.47;36.20;100011.81;90091;1272;79165;-59
2022/08/17 08:37:05;;;;;;;10.60;7.20;;;;;;;39.20;35.85;100015.54;90124;1270;81674;-60
2022/08/17 08:39:21;;;;;;;9.40;6.20;;;;;;;38.93;36.42;100010.73;90087;1272;99634;-59
2022/08/17 08:41:49;;;;;;;8.80;6.90;;;;;;;38.84;36.24;100013.48;90116;1271;88021;-60
2022/08/17 08:44:13;;;;;;;7.80;6.30;;;;;;;38.15;36.01;100020.27;90083;1271;94512;-60
2022/08/17 08:46:34;;;;;;;11.40;6.80;;;;;;;37.57;36.12;100016.69;90069;1271;78993;-60
2022/08/17 08:49:18;;;;;;;12.10;7.90;;;;;;;36.98;37.16;100019.91;90119;1271;82664;-60
2022/08/17 08:51:38;;;;;;;9.30;6.60;;;;;;;36.38;38.17;100019.06;90077;1271;99460;-59
2022/08/17 08:53:56;;;;;;;9.40;6.70;;;;;;;36.15;38.34;100013.11;90110;1271;88478;-59
2022/08/17 08:56:11;;;;;;;8.80;6.10;;;;;;;36.05;39.03;100010.73;90061;1271;92851;-59
2022/08/17 08:58:26;;;;;;;7.30;5.80;;;;;;;36.14;39.31;100015.48;90066;1271;79326;-60
2022/08/17 09:00:42;;;;;;;7.90;6.00;;;;;;;36.46;38.31;100020.10;90115;1271;81595;-60
2022/08/17 09:03:37;;;;;;;6.80;6.00;;;;;;;36.72;38.46;100013.48;90143;1271;97896;-60
2022/08/17 09:06:11;;;;;;;7.80;5.40;;;;;;;37.46;37.94;100016.99;90129;1270;88794;-60
2022/08/17 09:08:32;;;;;;;8.70;5.80;;;;;;;37.87;37.50;100018.20;90105;1272;94425;-60
2022/08/17 09:10:59;;;;;;;7.10;5.50;;;;;;;37.99;36.62;100014.67;90117;1271;79739;-60
2022/08/17 09:13:22;;;;;;;8.30;5.50;;;;;;;37.92;37.04;100014.16;90129;1271;81799;-59
2022/08/17 09:15:38;;;;;;;7.30;5.80;;;;;;;37.82;37.56;100014.56;90120;1270;98584;-59
2022/08/17 09:17:56;;;;;;;10.00;6.00;;;;;;;37.82;37.40;100018.02;90132;1271;89073;-60
2022/08/17 09:20:14;;;;;;;7.00;5.60;;;;;;;37.19;37.15;100022.15;90123;1270;93742;-60
2022/08/17 09:22:34;;;;;;;6.40;5.90;;;;;;;36.25;37.43;100019.80;90121;1272;79884;-60
2022/08/17 09:24:47;;;;;;;8.00;5.70;;;;;;;35.32;38.43;100024.44;90149;1270;82891;-60
2022/08/17 09:27:02;;;;;;;8.30;6.20;;;;;;;35.06;39.21;100025.05;90144;1272;98625;-59
2022/08/17 09:29:16;;;;;;;9.20;5.60;;;;;;;34.89;39.82;100023.48;90127;1270;87913;-59
2022/08/17 09:31:34;;;;;;;7.20;5.10;;;;;;;35.05;39.37;100022.30;90114;1271;94124;-60
2022/08/17 09:33:50;;;;;;;7.80;5.50;;;;;;;34.83;39.04;100022.27;90119;1272;80309;-60
2022/08/17 09:36:03;;;;;;;6.70;5.00;;;;;;;34.92;39.05;100024.51;90125;1270;82399;-60
2022/08/17 09:38:23;;;;;;;8.90;5.70;;;;;;;34.73;39.09;100022.23;90159;1270;99064;-60
2022/08/17 09:40:39;;;;;;;5.80;5.10;;;;;;;34.57;39.47;100021.77;90123;1270;89122;-60
2022/08/17 09:42:52;;;;;;;5.40;4.80;;;;;;;34.62;39.70;100024.73;90106;1271;95282;-60
2022/08/17 09:45:15;;;;;;;7.50;5.70;;;;;;;34.41;39.61;100027.73;90123;1271;79132;-60
2022/08/17 09:47:32;;;;;;;9.00;5.90;;;;;;;33.86;39.65;100024.90;90141;1272;82567;-60
2022/08/17 09:49:48;;;;;;;9.30;5.60;;;;;;;33.42;40.74;100029.73;90123;1271;98368;-60
2022/08/17 09:52:03;;;;;;;7.20;5.80;;;;;;;33.07;41.33;100026.70;90138;1271;88432;-59
2022/08/17 09:54:28;;;;;;;8.90;5.90;;;;;;;32.71;42.11;100030.21;90113;1271;92949;-59
2022/08/17 09:56:52;;;;;;;10.10;6.10;;;;;;;32.56;42.61;100030.70;90093;1270;79197;-60
2022/08/17 09:59:33;;;;;;;11.60;5.90;;;;;;;32.38;43.13;100032.74;90129;1270;81391;-60
2022/08/17 10:01:49;;;;;;;7.10;6.10;;;;;;;32.25;43.31;100026.95;90131;1270;98937;-60
2022/08/17 10:04:26;;;;;;;10.20;6.10;;;;;;;32.18;43.71;100026.45;90151;1270;88732;-60
2022/08/17 10:06:47;;;;;;;9.80;6.20;;;;;;;32.10;44.40;100025.33;90138;1271;94272;-60
2022/08/17 10:09:07;;;;;;;8.30;6.20;;;;;;;31.72;44.40;100023.94;90078;1271;80453;-60
2022/08/17 10:12:14;;;;;;;8.60;6.00;;;;;;;31.75;44.70;100026.28;90138;1270;82580;-59
2022/08/17 10:14:10;;;;;;;11.10;6.70;;;;;;;31.91;44.47;100022.84;90124;1271;98076;-59
2022/08/17 10:16:30;;;;;;;9.50;6.30;;;;;;;32.00;44.78;100026.02;90146;1271;88470;-59
2022/08/17 10:18:51;;;;;;;8.90;6.20;;;;;;;31.91;44.73;100024.85;90101;1270;94209;-60
2022/08/17 10:26:14;;;;;;;8.20;6.80;;;;;;;32.06;44.90;100025.20;90117;1272;99855;-60
2022/08/17 10:28:29;;;;;;;7.70;5.70;;;;;;;31.82;44.23;100026.46;90126;1271;88119;-59
2022/08/17 10:30:47;;;;;;;7.40;6.70;;;;;;;31.50;44.75;100031.41;90127;1272;92711;-59
2022/08/17 10:33:02;;;;;;;10.10;7.30;;;;;;;31.11;45.01;100031.77;90110;1271;79120;-59
2022/08/17 10:35:36;;;;;;;7.80;6.10;;;;;;;30.96;45.14;100029.11;90126;1270;81302;-59
2022/08/17 10:38:22;;;;;;;8.60;6.20;;;;;;;30.92;45.51;100029.18;90127;1271;98915;-59